Stations météo

réclame
Mon MeteoGroup
Cairnwell, Grande-Bretagne (3072): Température de l'air & dewpoint: 15.01.2018 13:00:00 - 21.01.2018 13:00:00 (GMT)Cairnwell, Grande-Bretagne (3072): Vitesse du vent & gusts: 15.01.2018 13:00:00 - 21.01.2018 13:00:00 (GMT)Cairnwell, Grande-Bretagne (3072): Direction du vent: 15.01.2018 13:00:00 - 21.01.2018 13:00:00 (GMT)
Date & Time tt [°C] td [°C] ff [km/h] ff [knt] fx [km/h] fx [knt] dd
21.01.2018 13:00:00 - - - - - - -
21.01.2018 12:00:00 -5,3 -5,6 24 13 61 33 SSE
21.01.2018 11:00:00 -5,6 -6,0 18 10 61 33 SSE
21.01.2018 10:00:00 -5,6 -6,0 22 12 - - S
21.01.2018 09:00:00 -5,6 -6,0 21 11 - - S
21.01.2018 08:00:00 -5,6 -6,0 13 7 - - SSE
21.01.2018 07:00:00 -5,5 -5,9 11 6 - - SSE
21.01.2018 06:00:00 -5,4 -5,7 11 6 - - S
21.01.2018 05:00:00 -5,3 -5,7 11 6 - - S
21.01.2018 04:00:00 -5,5 -5,8 8 4 - - S
21.01.2018 03:00:00 -5,4 -5,8 5 3 - - ESE
21.01.2018 02:00:00 -5,3 -5,7 15 8 - - NNE
21.01.2018 01:00:00 -5,3 -5,7 24 13 - - N
21.01.2018 00:00:00 -5,4 -5,8 28 15 57 31 N
20.01.2018 23:00:00 -5,4 -5,7 29 16 59 32 N
20.01.2018 22:00:00 -5,4 -5,8 29 16 57 31 N
20.01.2018 21:00:00 -5,5 -5,9 44 24 65 35 NNW
20.01.2018 20:00:00 -5,5 -5,9 41 22 61 33 N
20.01.2018 19:00:00 -5,5 -5,9 31 17 52 28 N
20.01.2018 18:00:00 -5,5 -5,8 28 15 - - N
20.01.2018 17:00:00 -5,4 -5,7 34 18 46 25 N
20.01.2018 16:00:00 -4,7 -4,9 39 21 48 26 N
20.01.2018 15:00:00 -3,5 -3,7 35 19 - - N
20.01.2018 14:00:00 -3,3 -3,5 28 15 - - NNW
20.01.2018 13:00:00 -4,2 -4,6 31 17 - - NNW
20.01.2018 12:00:00 -5,3 -5,7 34 18 - - NNW
20.01.2018 11:00:00 -6,1 -6,5 - - - - -
20.01.2018 10:00:00 -6,2 -6,7 29 16 - - NW
20.01.2018 09:00:00 -6,6 -7,1 18 10 - - N
20.01.2018 08:00:00 -6,6 -7,0 31 17 - - NW
20.01.2018 07:00:00 -6,3 -6,7 31 17 - - NW
20.01.2018 06:00:00 -6,0 -6,3 29 16 - - NW
20.01.2018 05:00:00 -5,7 -6,0 26 14 - - NW
20.01.2018 04:00:00 -5,4 -5,7 13 7 - - WNW
20.01.2018 03:00:00 -5,2 -5,5 22 12 - - W
20.01.2018 02:00:00 -5,1 -5,4 34 18 48 26 W
20.01.2018 01:00:00 -5,1 -5,4 28 15 - - W
20.01.2018 00:00:00 -5,2 -5,5 13 7 48 26 WSW
19.01.2018 23:00:00 -5,4 -5,8 21 11 52 28 WSW
19.01.2018 22:00:00 -5,5 -5,9 35 19 59 32 W
19.01.2018 21:00:00 -5,6 -5,9 35 19 74 40 W
19.01.2018 20:00:00 -5,8 -6,1 52 28 80 43 W
19.01.2018 19:00:00 -5,7 -6,1 52 28 74 40 W
19.01.2018 18:00:00 -5,5 -5,8 28 15 50 27 W
19.01.2018 17:00:00 -5,3 -5,7 22 12 - - W
19.01.2018 16:00:00 -5,0 -5,3 13 7 50 27 WSW
19.01.2018 15:00:00 -4,9 -5,2 39 21 65 35 W
19.01.2018 14:00:00 -4,7 -5,0 46 25 63 34 W
19.01.2018 13:00:00 -5,0 -5,3 41 22 57 31 W
19.01.2018 12:00:00 -5,1 -5,4 21 11 - - WSW
19.01.2018 11:00:00 -4,9 -5,2 16 9 - - SW
19.01.2018 10:00:00 -5,1 -5,4 31 17 50 27 WSW
19.01.2018 09:00:00 -5,3 -5,7 39 21 52 28 WSW
19.01.2018 08:00:00 -5,2 -5,6 24 13 - - WSW
19.01.2018 07:00:00 -5,4 -5,7 28 15 - - WSW
19.01.2018 06:00:00 -5,2 -5,5 41 22 65 35 W
19.01.2018 05:00:00 -5,1 -5,4 44 24 52 28 W
19.01.2018 04:00:00 -5,1 -5,3 35 19 50 27 W
19.01.2018 03:00:00 -4,8 -5,1 29 16 - - WSW
19.01.2018 02:00:00 -5,1 -5,3 15 8 52 28 WSW
19.01.2018 01:00:00 -5,0 -5,3 31 17 48 26 W
19.01.2018 00:00:00 -5,0 -5,3 26 14 - - W
18.01.2018 23:00:00 -5,1 -5,3 24 13 - - WSW
18.01.2018 22:00:00 -5,0 -5,3 15 8 - - WSW
18.01.2018 21:00:00 -4,9 -5,2 28 15 - - W
18.01.2018 20:00:00 -4,8 -5,0 29 16 - - W
18.01.2018 19:00:00 -4,8 -5,0 21 11 - - WNW
18.01.2018 18:00:00 -4,4 -4,6 16 9 - - WNW
18.01.2018 17:00:00 -4,2 -4,4 24 13 59 32 W
18.01.2018 16:00:00 -3,8 -3,9 44 24 55 30 W
18.01.2018 15:00:00 -3,2 -3,2 34 18 48 26 W
18.01.2018 14:00:00 -3,0 -3,0 26 14 - - W
18.01.2018 13:00:00 -3,2 -3,3 22 12 46 25 W
18.01.2018 12:00:00 -3,3 -3,4 29 16 54 29 W
18.01.2018 11:00:00 -4,1 -4,3 41 22 54 29 WNW
18.01.2018 10:00:00 -4,6 -4,8 26 14 - - WNW
18.01.2018 09:00:00 -4,5 -4,7 37 20 54 29 WNW
18.01.2018 08:00:00 -4,5 -4,7 35 19 - - WNW
18.01.2018 07:00:00 -4,6 -4,8 39 21 54 29 WNW
18.01.2018 06:00:00 -4,8 -5,1 46 25 59 32 WNW
18.01.2018 05:00:00 -5,1 -5,4 46 25 54 29 NW
18.01.2018 04:00:00 -5,1 -5,4 29 16 50 27 NNW
18.01.2018 03:00:00 -5,1 -5,4 41 22 - - NNW
18.01.2018 02:00:00 -4,9 -5,1 29 16 - - NNW
18.01.2018 01:00:00 -4,8 -5,0 26 14 - - WNW
18.01.2018 00:00:00 -4,8 -5,0 5 3 - - S
17.01.2018 23:00:00 -4,7 -4,9 28 15 - - W
17.01.2018 22:00:00 -4,7 -4,9 24 13 - - W
17.01.2018 21:00:00 -4,7 -4,9 34 18 54 29 W
17.01.2018 20:00:00 -4,7 -4,9 37 20 55 30 W
17.01.2018 19:00:00 -4,6 -4,7 46 25 78 42 W
17.01.2018 18:00:00 -4,3 -4,4 48 26 74 40 W
17.01.2018 17:00:00 -3,9 -4,0 55 30 78 42 W
17.01.2018 16:00:00 -3,8 -3,9 41 22 61 33 W
17.01.2018 15:00:00 -3,6 -3,7 35 19 52 28 W
17.01.2018 14:00:00 -3,7 -3,8 37 20 63 34 W
17.01.2018 13:00:00 -3,9 -4,1 29 16 76 41 W
17.01.2018 12:00:00 -4,1 -4,3 50 27 93 50 W
17.01.2018 11:00:00 -4,5 -4,7 41 22 70 38 W
17.01.2018 10:00:00 -4,9 -5,2 54 29 81 44 W
17.01.2018 09:00:00 -5,3 -5,6 46 25 111 60 W
17.01.2018 08:00:00 -5,5 -5,8 67 36 119 64 WNW
17.01.2018 07:00:00 -5,5 -5,8 72 39 117 63 WNW
17.01.2018 06:00:00 -5,5 -5,8 76 41 107 58 WNW
17.01.2018 05:00:00 -5,4 -5,6 61 33 98 53 W
17.01.2018 04:00:00 -5,8 -6,2 42 23 78 42 W
17.01.2018 03:00:00 -6,6 -7,1 29 16 57 31 W
17.01.2018 02:00:00 -6,9 -7,4 24 13 50 27 W
17.01.2018 01:00:00 -6,8 -7,3 29 16 - - WSW
17.01.2018 00:00:00 -6,7 -7,3 24 13 - - WSW
16.01.2018 23:00:00 -6,8 -7,3 29 16 - - W
16.01.2018 22:00:00 -6,6 -7,1 29 16 - - W
16.01.2018 21:00:00 -6,5 -7,0 29 16 - - W
16.01.2018 20:00:00 -6,5 -6,9 26 14 - - WSW
16.01.2018 19:00:00 -6,3 -6,8 29 16 - - WSW
16.01.2018 18:00:00 -6,2 -6,6 37 20 50 27 WSW
16.01.2018 17:00:00 -6,0 -6,4 34 18 57 31 W
16.01.2018 16:00:00 -5,8 -6,1 26 14 50 27 W
16.01.2018 15:00:00 -5,7 -6,0 35 19 54 29 W
16.01.2018 14:00:00 -5,6 -5,9 37 20 57 31 W
16.01.2018 13:00:00 -5,6 -6,0 31 17 59 32 W
16.01.2018 12:00:00 -5,3 -5,6 35 19 57 31 WSW
16.01.2018 11:00:00 -5,3 -5,6 37 20 61 33 WSW
16.01.2018 10:00:00 -5,4 -5,7 29 16 48 26 WSW
16.01.2018 09:00:00 -5,4 -5,7 34 18 48 26 WSW
16.01.2018 08:00:00 -5,1 -5,4 26 14 50 27 WSW
16.01.2018 07:00:00 -5,4 -5,7 34 18 46 25 W
16.01.2018 06:00:00 -5,2 -5,5 31 17 52 28 WSW
16.01.2018 05:00:00 -5,4 -5,7 34 18 46 25 W
16.01.2018 04:00:00 -5,5 -5,8 28 15 46 25 W
16.01.2018 03:00:00 -5,4 -5,7 34 18 - - W
16.01.2018 02:00:00 -5,1 -5,3 28 15 48 26 W
16.01.2018 01:00:00 -5,1 -5,3 28 15 - - W
16.01.2018 00:00:00 -4,6 -4,7 29 16 50 27 W
15.01.2018 23:00:00 -4,4 -4,6 37 20 48 26 WSW
15.01.2018 22:00:00 -4,2 -4,4 26 14 - - W
15.01.2018 21:00:00 -4,2 -4,3 34 18 - - WSW
15.01.2018 20:00:00 -3,9 -4,0 22 12 - - WSW
15.01.2018 19:00:00 -3,7 -3,8 28 15 - - WSW
15.01.2018 18:00:00 -3,5 -3,5 28 15 - - WSW
15.01.2018 17:00:00 -3,3 -3,3 24 13 - - W
15.01.2018 16:00:00 -3,0 -3,0 26 14 48 26 W
15.01.2018 15:00:00 -2,5 -2,5 29 16 59 32 W
15.01.2018 14:00:00 -2,3 -2,3 31 17 46 25 WSW
15.01.2018 13:00:00 -1,8 -1,8 24 13 48 26 W

tt = Température de l'air
td = dewpoint
ff = Vitesse du vent
fx = gusts
dd = Direction du vent

stations d'obs. à proximité